createdAt,value
2022-12-01T00:00:33.758Z,41.24
2022-12-01T00:03:00.880Z,41.47
2022-12-01T00:05:28.093Z,41.30
2022-12-01T00:07:55.207Z,41.48
2022-12-01T00:10:28.656Z,41.27
2022-12-01T00:12:55.709Z,41.54
2022-12-01T00:15:22.801Z,41.26
2022-12-01T00:17:49.947Z,41.47
2022-12-01T00:20:17.016Z,41.30
2022-12-01T00:22:44.125Z,41.31
2022-12-01T00:25:11.181Z,41.33
2022-12-01T00:27:38.269Z,41.49
2022-12-01T00:30:05.340Z,41.42
2022-12-01T00:32:32.422Z,41.39
2022-12-01T00:34:59.536Z,41.52
2022-12-01T00:37:26.589Z,41.25
2022-12-01T00:39:53.649Z,41.50
2022-12-01T00:42:20.951Z,41.40
2022-12-01T00:44:48.207Z,41.42
2022-12-01T00:47:15.288Z,41.35
2022-12-01T00:49:42.536Z,41.56
2022-12-01T00:52:09.590Z,41.43
2022-12-01T00:54:36.814Z,41.52
2022-12-01T00:57:03.875Z,41.36
2022-12-01T00:59:30.937Z,41.55
2022-12-01T01:01:58.107Z,41.39
2022-12-01T01:04:25.236Z,41.39
2022-12-01T01:06:52.664Z,41.46
2022-12-01T01:09:19.746Z,41.59
2022-12-01T01:11:46.812Z,41.47
2022-12-01T01:14:13.870Z,41.52
2022-12-01T01:16:41.055Z,41.47
2022-12-01T01:19:08.198Z,41.43
2022-12-01T01:21:35.279Z,41.34
2022-12-01T01:24:02.412Z,41.45
2022-12-01T01:26:29.510Z,41.29
2022-12-01T01:28:56.588Z,41.51
2022-12-01T01:31:23.652Z,41.56
2022-12-01T01:33:50.702Z,41.34
2022-12-01T01:36:17.943Z,41.28
2022-12-01T01:38:45.152Z,41.48
2022-12-01T01:41:12.209Z,41.51
2022-12-01T01:43:39.467Z,41.21
2022-12-01T01:46:06.579Z,41.53
2022-12-01T01:48:33.655Z,41.17
2022-12-01T01:51:00.721Z,41.53
2022-12-01T01:53:27.792Z,41.36
2022-12-01T01:55:54.841Z,41.49
2022-12-01T01:58:21.937Z,41.45
2022-12-01T02:00:49.016Z,41.38
2022-12-01T02:03:16.180Z,41.37
2022-12-01T02:05:44.884Z,41.21
2022-12-01T02:08:14.693Z,41.27
2022-12-01T02:10:41.750Z,41.38
2022-12-01T02:13:08.859Z,41.22
2022-12-01T02:15:35.921Z,41.43
2022-12-01T02:18:02.989Z,41.55
2022-12-01T02:20:30.178Z,41.39
2022-12-01T02:22:57.230Z,41.27
2022-12-01T02:25:24.316Z,41.49
2022-12-01T02:27:51.566Z,41.32
2022-12-01T02:30:18.673Z,41.34
2022-12-01T02:32:45.788Z,41.37
2022-12-01T02:35:12.974Z,41.26
2022-12-01T02:37:40.029Z,41.52
2022-12-01T02:40:07.135Z,41.50
2022-12-01T02:42:50.512Z,41.46
2022-12-01T02:45:17.591Z,41.23
2022-12-01T02:47:44.645Z,41.48
2022-12-01T02:50:11.902Z,41.44
2022-12-01T02:52:39.037Z,41.26
2022-12-01T02:55:06.123Z,41.38
2022-12-01T02:57:33.181Z,41.32
2022-12-01T03:00:00.285Z,41.20
2022-12-01T03:02:27.525Z,41.22
2022-12-01T03:04:54.995Z,41.39
2022-12-01T03:07:22.117Z,41.63
2022-12-01T03:09:49.645Z,41.35
2022-12-01T03:12:17.012Z,41.32
2022-12-01T03:14:45.130Z,41.44
2022-12-01T03:17:12.207Z,41.43
2022-12-01T03:19:39.280Z,41.38
2022-12-01T03:22:06.365Z,41.42
2022-12-01T03:24:33.427Z,41.41
2022-12-01T03:27:00.516Z,41.35
2022-12-01T03:29:28.022Z,41.44
2022-12-01T03:31:55.237Z,41.60
2022-12-01T03:34:23.982Z,41.60
2022-12-01T03:36:51.285Z,41.28
2022-12-01T03:39:18.388Z,41.45
2022-12-01T03:41:45.451Z,41.55
2022-12-01T03:44:12.574Z,41.70
2022-12-01T03:46:41.278Z,41.47
2022-12-01T03:49:09.653Z,41.63
2022-12-01T03:51:36.730Z,41.57
2022-12-01T03:54:03.868Z,41.36
2022-12-01T03:56:30.977Z,41.55
2022-12-01T03:58:58.353Z,41.48
2022-12-01T04:01:26.693Z,41.68
2022-12-01T04:03:53.819Z,41.67
2022-12-01T04:06:20.942Z,41.60
2022-12-01T04:08:48.053Z,41.44
2022-12-01T04:11:33.909Z,41.55
2022-12-01T04:14:00.968Z,41.62
2022-12-01T04:16:28.215Z,41.53
2022-12-01T04:18:55.837Z,41.51
2022-12-01T04:21:23.154Z,41.46
2022-12-01T04:24:02.550Z,41.62
2022-12-01T04:26:29.637Z,41.42
2022-12-01T04:28:57.173Z,41.48
2022-12-01T04:31:24.361Z,41.49
2022-12-01T04:33:51.511Z,41.40
2022-12-01T04:36:18.570Z,41.52
2022-12-01T04:38:45.667Z,41.64
2022-12-01T04:41:12.766Z,41.43
2022-12-01T04:43:39.818Z,41.43
2022-12-01T04:46:06.958Z,41.70
2022-12-01T04:48:34.031Z,41.60
2022-12-01T04:51:01.571Z,41.30
2022-12-01T04:53:28.737Z,41.70
2022-12-01T04:55:55.800Z,41.66
2022-12-01T04:58:22.868Z,41.65
2022-12-01T05:00:49.983Z,41.45
2022-12-01T05:03:17.135Z,41.71
2022-12-01T05:05:44.227Z,41.57
2022-12-01T05:08:11.355Z,41.46
2022-12-01T05:10:38.445Z,41.52
2022-12-01T05:13:05.566Z,41.60
2022-12-01T05:15:32.630Z,41.66
2022-12-01T05:17:59.783Z,41.64
2022-12-01T05:20:45.781Z,41.58
2022-12-01T05:23:16.784Z,41.64
2022-12-01T05:25:44.393Z,41.41
2022-12-01T05:28:11.536Z,41.55
2022-12-01T05:30:38.795Z,41.74
2022-12-01T05:33:08.903Z,41.58
2022-12-01T05:35:35.983Z,41.54
2022-12-01T05:38:07.552Z,41.51
2022-12-01T05:40:35.167Z,41.52
2022-12-01T05:43:02.270Z,41.56
2022-12-01T05:45:29.402Z,41.53
2022-12-01T05:47:56.564Z,41.57
2022-12-01T05:50:23.653Z,41.57
2022-12-01T05:52:50.726Z,41.74
2022-12-01T05:55:18.084Z,41.83
2022-12-01T05:57:45.278Z,41.61
2022-12-01T06:00:12.976Z,41.51
2022-12-01T06:02:40.070Z,41.73
2022-12-01T06:05:07.170Z,41.79
2022-12-01T06:07:35.719Z,41.69
2022-12-01T06:10:02.828Z,41.69
2022-12-01T06:12:29.969Z,41.75
2022-12-01T06:14:57.091Z,41.63
2022-12-01T06:17:24.180Z,41.77
2022-12-01T06:19:51.450Z,41.63
2022-12-01T06:22:18.757Z,41.72
2022-12-01T06:24:45.811Z,41.87
2022-12-01T06:27:12.908Z,41.69
2022-12-01T06:29:42.255Z,41.86
2022-12-01T06:32:09.661Z,41.64
2022-12-01T06:34:36.748Z,41.57
2022-12-01T06:37:03.903Z,41.86
2022-12-01T06:39:30.972Z,41.41
2022-12-01T06:41:58.120Z,41.57
2022-12-01T06:44:25.176Z,41.78
2022-12-01T06:46:53.002Z,41.60
2022-12-01T06:49:20.205Z,41.56
2022-12-01T06:51:47.525Z,41.74
2022-12-01T06:54:15.251Z,41.72
2022-12-01T06:56:43.220Z,41.73
2022-12-01T06:59:10.536Z,41.60
2022-12-01T07:01:37.877Z,41.88
2022-12-01T07:04:05.013Z,41.65
2022-12-01T07:06:32.069Z,41.72
2022-12-01T07:08:59.131Z,41.82
2022-12-01T07:11:26.215Z,41.65
2022-12-01T07:13:53.301Z,41.71
2022-12-01T07:16:20.430Z,41.81
2022-12-01T07:18:47.502Z,41.84
2022-12-01T07:21:14.797Z,41.79
2022-12-01T07:23:41.860Z,41.71
2022-12-01T07:26:08.958Z,41.84
2022-12-01T07:28:36.025Z,41.61
2022-12-01T07:31:03.306Z,41.70
2022-12-01T07:33:30.561Z,41.62
2022-12-01T07:35:57.675Z,41.83
2022-12-01T07:38:24.758Z,41.77
2022-12-01T07:40:52.084Z,41.82
2022-12-01T07:43:19.184Z,41.69
2022-12-01T07:45:46.540Z,41.85
2022-12-01T07:48:13.667Z,41.79
2022-12-01T07:50:40.840Z,41.78
2022-12-01T07:53:07.963Z,41.67
2022-12-01T07:55:35.149Z,41.68
2022-12-01T07:58:02.266Z,41.89
2022-12-01T08:00:29.398Z,41.76
2022-12-01T08:02:56.560Z,41.64
2022-12-01T08:05:23.651Z,41.71
2022-12-01T08:07:50.742Z,41.54
2022-12-01T08:10:17.846Z,41.48
2022-12-01T08:12:44.898Z,41.49
2022-12-01T08:15:12.025Z,41.48
2022-12-01T08:17:39.109Z,41.65
2022-12-01T08:20:06.259Z,41.39
2022-12-01T08:22:33.386Z,41.43
2022-12-01T08:25:00.654Z,41.45
2022-12-01T08:27:27.753Z,41.48
2022-12-01T08:29:54.813Z,41.50
2022-12-01T08:32:21.886Z,41.40
2022-12-01T08:34:53.315Z,41.38
2022-12-01T08:37:20.985Z,41.61
2022-12-01T08:39:48.383Z,41.53
2022-12-01T08:42:15.618Z,41.43
2022-12-01T08:44:42.715Z,41.42
2022-12-01T08:47:12.041Z,41.40
2022-12-01T08:49:41.437Z,41.40
2022-12-01T08:52:08.495Z,41.42
2022-12-01T08:54:35.547Z,41.42
2022-12-01T08:57:02.602Z,41.23
2022-12-01T08:59:29.706Z,41.15
2022-12-01T09:01:57.450Z,41.62
2022-12-01T09:04:24.845Z,41.51
2022-12-01T09:06:52.016Z,41.37
2022-12-01T09:09:19.085Z,41.17
2022-12-01T09:11:46.223Z,41.51
2022-12-01T09:14:13.359Z,41.45
2022-12-01T09:16:40.484Z,41.39
2022-12-01T09:19:07.666Z,41.31
2022-12-01T09:21:34.841Z,41.01
2022-12-01T09:24:01.935Z,41.02
2022-12-01T09:26:29.083Z,41.27
2022-12-01T09:28:56.172Z,41.19
2022-12-01T09:31:23.582Z,41.47
2022-12-01T09:33:51.598Z,41.27
2022-12-01T09:36:18.670Z,41.34
2022-12-01T09:38:45.726Z,41.28
2022-12-01T09:41:12.789Z,41.37
2022-12-01T09:43:40.229Z,41.31
2022-12-01T09:46:09.290Z,41.15
2022-12-01T09:48:42.520Z,41.25
2022-12-01T09:51:09.585Z,41.45
2022-12-01T09:53:36.920Z,41.36
2022-12-01T09:56:09.984Z,41.40
2022-12-01T09:58:39.936Z,41.14
2022-12-01T10:01:07.066Z,41.13
2022-12-01T10:03:34.203Z,41.43
2022-12-01T10:08:48.837Z,41.19
2022-12-01T10:11:15.916Z,41.19
2022-12-01T10:13:43.919Z,41.30
2022-12-01T10:16:11.206Z,41.11
2022-12-01T10:18:38.462Z,41.02
2022-12-01T10:21:05.587Z,41.02
2022-12-01T10:23:32.644Z,41.42
2022-12-01T10:25:59.860Z,41.12
2022-12-01T10:28:26.957Z,41.31
2022-12-01T10:30:54.014Z,41.20
2022-12-01T10:33:21.070Z,41.00
2022-12-01T10:35:48.168Z,41.01
2022-12-01T10:38:15.293Z,41.27
2022-12-01T10:40:42.723Z,41.17
2022-12-01T10:43:09.863Z,40.92
2022-12-01T10:45:37.015Z,40.98
2022-12-01T10:48:04.126Z,41.14
2022-12-01T10:50:31.206Z,41.17
2022-12-01T10:52:58.271Z,41.06
2022-12-01T10:55:28.550Z,41.06
2022-12-01T10:57:55.623Z,40.86
2022-12-01T11:00:57.482Z,40.94
2022-12-01T11:03:10.004Z,41.06
2022-12-01T11:05:37.238Z,40.93
2022-12-01T11:08:04.316Z,41.16
2022-12-01T11:10:31.573Z,40.99
2022-12-01T11:12:58.699Z,40.86
2022-12-01T11:15:25.761Z,40.93
2022-12-01T11:17:52.833Z,41.14
2022-12-01T11:20:19.992Z,40.88
2022-12-01T11:22:47.126Z,40.96
2022-12-01T11:25:14.193Z,40.94
2022-12-01T11:27:41.282Z,40.88
2022-12-01T11:30:08.415Z,41.13
2022-12-01T11:32:35.553Z,40.88
2022-12-01T11:35:02.862Z,41.08
2022-12-01T11:37:29.997Z,40.91
2022-12-01T11:39:57.174Z,40.87
2022-12-01T11:42:24.256Z,41.26
2022-12-01T11:44:52.238Z,41.07
2022-12-01T11:47:24.407Z,40.98
2022-12-01T11:49:52.450Z,41.05
2022-12-01T11:52:19.968Z,41.10
2022-12-01T11:54:47.034Z,41.12
2022-12-01T11:57:35.197Z,41.04
2022-12-01T12:00:01.149Z,41.05
2022-12-01T12:02:28.339Z,40.84
2022-12-01T12:04:55.588Z,40.82
2022-12-01T12:07:22.713Z,41.01
2022-12-01T12:09:49.922Z,40.88
2022-12-01T12:12:17.109Z,40.82
2022-12-01T12:14:44.198Z,40.83
2022-12-01T12:17:11.252Z,40.97
2022-12-01T12:20:06.205Z,41.05
2022-12-01T12:22:25.367Z,40.78
2022-12-01T12:24:52.428Z,40.84
2022-12-01T12:27:19.504Z,40.88
2022-12-01T12:29:46.609Z,40.88
2022-12-01T12:32:13.720Z,41.00
2022-12-01T12:34:40.845Z,41.14
2022-12-01T12:37:07.973Z,41.12
2022-12-01T12:39:35.032Z,40.85
2022-12-01T12:42:02.272Z,40.88
2022-12-01T12:44:33.885Z,41.04
2022-12-01T12:47:04.242Z,41.08
2022-12-01T12:49:31.333Z,41.02
2022-12-01T12:51:58.436Z,40.82
2022-12-01T12:54:25.575Z,40.93
2022-12-01T12:56:52.872Z,40.76
2022-12-01T12:59:19.921Z,40.82
2022-12-01T13:01:47.031Z,40.80
2022-12-01T13:04:14.202Z,41.02
2022-12-01T13:06:41.267Z,40.78
2022-12-01T13:09:08.411Z,41.04
2022-12-01T13:11:35.473Z,40.66
2022-12-01T13:14:02.556Z,40.86
2022-12-01T13:16:29.650Z,41.07
2022-12-01T13:18:59.773Z,40.73
2022-12-01T13:21:26.899Z,40.88
2022-12-01T13:23:53.987Z,41.11
2022-12-01T13:26:21.052Z,40.64
2022-12-01T13:28:48.317Z,40.90
2022-12-01T13:31:15.476Z,40.87
2022-12-01T13:33:42.590Z,40.94
2022-12-01T13:38:56.712Z,40.67
2022-12-01T13:41:24.173Z,41.02
2022-12-01T13:43:51.247Z,40.98
2022-12-01T13:46:18.496Z,40.79
2022-12-01T13:48:45.673Z,40.84
2022-12-01T13:51:12.730Z,41.18
2022-12-01T13:53:39.787Z,40.90
2022-12-01T13:56:06.938Z,40.99
2022-12-01T13:58:34.038Z,41.01
2022-12-01T14:01:01.189Z,41.08
2022-12-01T14:03:28.466Z,40.87
2022-12-01T14:05:58.459Z,41.12
2022-12-01T14:08:25.616Z,40.75
2022-12-01T14:10:52.737Z,41.12
2022-12-01T14:13:21.270Z,40.91
2022-12-01T14:15:48.373Z,40.97
2022-12-01T14:18:15.518Z,41.13
2022-12-01T14:20:42.584Z,41.22
2022-12-01T14:23:09.727Z,40.89
2022-12-01T14:25:37.585Z,40.85
2022-12-01T14:28:04.649Z,41.19
2022-12-01T14:30:31.725Z,41.03
2022-12-01T14:32:58.825Z,41.18
2022-12-01T14:35:25.909Z,40.93
2022-12-01T14:37:53.012Z,40.98
2022-12-01T14:40:20.214Z,41.09
2022-12-01T14:43:05.968Z,40.86
2022-12-01T14:45:33.066Z,41.11
2022-12-01T14:48:00.142Z,40.93
2022-12-01T14:50:27.197Z,41.00
2022-12-01T14:52:54.346Z,41.00
2022-12-01T14:55:21.414Z,41.11
2022-12-01T14:57:48.690Z,41.16
2022-12-01T15:00:15.772Z,41.18
2022-12-01T15:02:42.859Z,41.18
2022-12-01T15:05:10.200Z,41.27
2022-12-01T15:07:37.310Z,41.00
2022-12-01T15:10:04.769Z,41.14
2022-12-01T15:12:32.098Z,41.00
2022-12-01T15:14:59.156Z,41.13
2022-12-01T15:17:26.257Z,41.16
2022-12-01T15:19:53.445Z,41.12
2022-12-01T15:22:20.626Z,40.73
2022-12-01T15:24:47.924Z,40.58
2022-12-01T15:27:15.290Z,40.69
2022-12-01T15:29:44.018Z,40.61
2022-12-01T15:32:11.133Z,40.50
2022-12-01T15:34:38.253Z,40.50
2022-12-01T15:37:05.565Z,40.27
2022-12-01T15:39:32.670Z,40.55
2022-12-01T15:41:59.806Z,40.35
2022-12-01T15:44:27.061Z,40.52
2022-12-01T15:46:54.175Z,40.82
2022-12-01T15:49:21.319Z,40.53
2022-12-01T15:51:48.403Z,40.68
2022-12-01T15:54:15.471Z,40.71
2022-12-01T15:56:42.594Z,40.72
2022-12-01T15:59:09.849Z,40.64
2022-12-01T16:01:37.254Z,40.36
2022-12-01T16:04:04.448Z,40.79
2022-12-01T16:06:31.567Z,40.88
2022-12-01T16:08:59.399Z,40.61
2022-12-01T16:11:26.641Z,40.91
2022-12-01T16:13:53.700Z,40.72
2022-12-01T16:16:20.774Z,40.40
2022-12-01T16:18:47.863Z,40.61
2022-12-01T16:21:14.952Z,40.42
2022-12-01T16:23:42.056Z,40.74
2022-12-01T16:26:09.130Z,40.58
2022-12-01T16:28:36.261Z,40.63
2022-12-01T16:31:05.461Z,40.39
2022-12-01T16:33:32.869Z,40.31
2022-12-01T16:35:59.925Z,40.72
2022-12-01T16:38:28.342Z,40.29
2022-12-01T16:40:55.401Z,40.46
2022-12-01T16:43:22.486Z,40.65
2022-12-01T16:45:52.815Z,40.44
2022-12-01T16:48:20.395Z,40.30
2022-12-01T16:50:47.461Z,40.71
2022-12-01T16:53:14.613Z,40.43
2022-12-01T16:55:41.729Z,40.32
2022-12-01T16:58:08.782Z,40.52
2022-12-01T17:00:35.903Z,40.49
2022-12-01T17:03:03.039Z,40.40
2022-12-01T17:05:30.154Z,40.44
2022-12-01T17:07:57.293Z,40.67
2022-12-01T17:10:24.409Z,40.52
2022-12-01T17:12:51.516Z,40.57
2022-12-01T17:15:18.581Z,40.52
2022-12-01T17:17:45.744Z,40.28
2022-12-01T17:20:12.867Z,40.37
2022-12-01T17:22:39.943Z,40.79
2022-12-01T17:25:08.785Z,40.41
2022-12-01T17:27:35.854Z,40.49
2022-12-01T17:30:03.140Z,40.81
2022-12-01T17:32:30.270Z,40.66
2022-12-01T17:34:57.355Z,40.85
2022-12-01T17:37:24.455Z,40.78
2022-12-01T17:39:51.522Z,40.83
2022-12-01T17:42:18.634Z,40.80
2022-12-01T17:44:45.707Z,40.73
2022-12-01T17:47:12.810Z,40.89
2022-12-01T17:49:39.882Z,40.81
2022-12-01T17:52:07.132Z,40.98
2022-12-01T17:54:34.449Z,40.84
2022-12-01T17:57:01.533Z,41.17
2022-12-01T17:59:28.622Z,41.07
2022-12-01T18:01:55.729Z,41.10
2022-12-01T18:04:22.863Z,41.08
2022-12-01T18:06:53.961Z,40.78
2022-12-01T18:09:21.701Z,40.78
2022-12-01T18:11:48.796Z,40.84
2022-12-01T18:14:18.956Z,41.03
2022-12-01T18:16:46.041Z,41.08
2022-12-01T18:19:13.150Z,40.66
2022-12-01T18:21:40.233Z,40.89
2022-12-01T18:24:08.917Z,41.04
2022-12-01T18:26:36.006Z,41.59
2022-12-01T18:29:03.116Z,40.50
2022-12-01T18:31:30.500Z,40.40
2022-12-01T18:33:58.403Z,40.96
2022-12-01T18:36:25.499Z,40.62
2022-12-01T18:38:53.430Z,40.86
2022-12-01T18:41:20.498Z,40.72
2022-12-01T18:43:47.588Z,40.53
2022-12-01T18:46:14.892Z,40.52
2022-12-01T18:48:42.013Z,40.68
2022-12-01T18:51:09.148Z,40.78
2022-12-01T18:53:36.286Z,40.86
2022-12-01T18:56:03.603Z,40.13
2022-12-01T18:58:30.677Z,40.13
2022-12-01T19:00:57.801Z,40.50
2022-12-01T19:03:24.889Z,40.62
2022-12-01T19:05:51.963Z,40.88
2022-12-01T19:08:19.167Z,41.03
2022-12-01T19:10:46.288Z,40.86
2022-12-01T19:13:13.363Z,40.98
2022-12-01T19:15:40.460Z,40.75
2022-12-01T19:18:07.514Z,40.96
2022-12-01T19:20:34.622Z,40.88
2022-12-01T19:23:01.754Z,40.93
2022-12-01T19:25:28.966Z,40.79
2022-12-01T19:27:56.025Z,40.82
2022-12-01T19:30:23.146Z,40.99
2022-12-01T19:32:50.223Z,41.05
2022-12-01T19:35:17.324Z,40.82
2022-12-01T19:37:44.423Z,40.87
2022-12-01T19:40:11.501Z,40.88
2022-12-01T19:42:38.571Z,41.05
2022-12-01T19:45:05.668Z,40.92
2022-12-01T19:47:32.746Z,40.78
2022-12-01T19:49:59.831Z,41.38
2022-12-01T19:52:26.943Z,41.25
2022-12-01T19:54:54.041Z,41.19
2022-12-01T19:57:21.106Z,41.28
2022-12-01T19:59:48.162Z,41.16
2022-12-01T20:02:15.260Z,41.25
2022-12-01T20:04:42.372Z,41.13
2022-12-01T20:07:09.483Z,41.29
2022-12-01T20:09:36.551Z,41.53
2022-12-01T20:12:03.679Z,40.88
2022-12-01T20:14:30.777Z,41.02
2022-12-01T20:16:57.866Z,40.66
2022-12-01T20:19:24.966Z,40.74
2022-12-01T20:21:52.033Z,41.00
2022-12-01T20:24:20.249Z,40.66
2022-12-01T20:26:47.360Z,40.94
2022-12-01T20:29:14.776Z,40.65
2022-12-01T20:31:41.999Z,40.77
2022-12-01T20:34:09.153Z,40.75
2022-12-01T20:36:36.223Z,40.99
2022-12-01T20:39:03.371Z,41.02
2022-12-01T20:41:30.456Z,40.84
2022-12-01T20:44:00.158Z,41.06
2022-12-01T20:46:30.905Z,40.73
2022-12-01T20:48:57.969Z,40.71
2022-12-01T20:51:25.049Z,40.83
2022-12-01T20:54:19.545Z,41.03
2022-12-01T20:56:39.450Z,40.70
2022-12-01T20:59:06.566Z,41.04
2022-12-01T21:01:33.721Z,40.73
2022-12-01T21:04:00.966Z,40.67
2022-12-01T21:06:29.615Z,40.97
2022-12-01T21:08:56.709Z,41.21
2022-12-01T21:11:43.742Z,41.27
2022-12-01T21:14:10.810Z,41.08
2022-12-01T21:16:37.961Z,41.10
2022-12-01T21:19:06.466Z,40.93
2022-12-01T21:21:33.534Z,40.96
2022-12-01T21:24:00.613Z,41.25
2022-12-01T21:26:27.740Z,40.94
2022-12-01T21:28:54.807Z,41.00
2022-12-01T21:31:21.904Z,41.35
2022-12-01T21:33:48.982Z,41.20
2022-12-01T21:36:16.748Z,41.15
2022-12-01T21:38:43.828Z,41.08
2022-12-01T21:41:10.875Z,41.30
2022-12-01T21:43:38.623Z,41.33
2022-12-01T21:46:05.878Z,41.27
2022-12-01T21:48:33.003Z,40.89
2022-12-01T21:51:00.087Z,41.10
2022-12-01T21:53:27.171Z,41.05
2022-12-01T21:55:54.244Z,40.89
2022-12-01T21:58:21.331Z,41.06
2022-12-01T22:00:48.416Z,40.93
2022-12-01T22:03:15.465Z,41.17
2022-12-01T22:05:42.860Z,41.20
2022-12-01T22:08:13.078Z,41.19
2022-12-01T22:10:40.122Z,41.10
2022-12-01T22:13:07.179Z,41.02
2022-12-01T22:15:34.340Z,41.38
2022-12-01T22:18:01.460Z,41.33
2022-12-01T22:20:28.621Z,41.11
2022-12-01T22:22:55.679Z,41.15
2022-12-01T22:25:22.746Z,41.06
2022-12-01T22:27:49.798Z,41.25
2022-12-01T22:30:16.899Z,41.17
2022-12-01T22:32:44.098Z,40.96
2022-12-01T22:35:11.199Z,41.15
2022-12-01T22:37:38.262Z,41.13
2022-12-01T22:40:05.307Z,41.07
2022-12-01T22:42:32.358Z,41.15
2022-12-01T22:44:59.412Z,41.21
2022-12-01T22:47:26.461Z,41.26
2022-12-01T22:49:53.515Z,41.20
2022-12-01T22:52:20.567Z,41.16
2022-12-01T22:54:49.413Z,41.15
2022-12-01T22:57:16.835Z,41.26
2022-12-01T22:59:43.936Z,41.30
2022-12-01T23:02:11.113Z,41.18
2022-12-01T23:04:38.198Z,41.25
2022-12-01T23:07:05.306Z,41.13
2022-12-01T23:09:32.369Z,41.33
2022-12-01T23:11:59.465Z,41.37
2022-12-01T23:14:26.517Z,41.19
2022-12-01T23:16:53.634Z,41.18
2022-12-01T23:19:20.735Z,41.14
2022-12-01T23:21:47.867Z,41.25
2022-12-01T23:24:14.989Z,41.39
2022-12-01T23:26:42.062Z,41.64
2022-12-01T23:29:09.118Z,41.67
2022-12-01T23:31:36.300Z,41.65
2022-12-01T23:34:03.381Z,41.45
2022-12-01T23:36:30.431Z,41.38
2022-12-01T23:38:57.506Z,41.55
2022-12-01T23:41:25.803Z,41.27
2022-12-01T23:43:53.040Z,41.24
2022-12-01T23:46:20.177Z,41.26
2022-12-01T23:48:47.275Z,41.51
2022-12-01T23:51:14.376Z,41.26
2022-12-01T23:53:41.442Z,41.49
2022-12-01T23:56:08.497Z,41.19
2022-12-01T23:58:35.595Z,41.29
